createdAt,value
2022-12-01T00:03:40.245Z,10.88
2022-12-01T00:09:06.108Z,11.88
2022-12-01T00:14:08.641Z,10.93
2022-12-01T00:19:19.792Z,11.18
2022-12-01T00:24:23.789Z,9.68
2022-12-01T00:29:26.299Z,9.23
2022-12-01T00:34:29.040Z,10.95
2022-12-01T00:39:31.536Z,11.50
2022-12-01T00:49:36.373Z,12.73
2022-12-01T00:59:42.538Z,13.73
2022-12-01T01:04:45.084Z,13.98
2022-12-01T01:09:47.996Z,14.65
2022-12-01T01:14:50.775Z,11.07
2022-12-01T01:19:53.978Z,13.23
2022-12-01T01:24:56.417Z,13.45
2022-12-01T01:29:58.888Z,13.25
2022-12-01T01:35:01.411Z,9.25
2022-12-01T01:40:06.119Z,8.48
2022-12-01T01:45:22.508Z,10.40
2022-12-01T01:50:28.666Z,9.07
2022-12-01T01:55:34.014Z,7.95
2022-12-01T02:00:38.420Z,9.25
2022-12-01T02:05:43.379Z,8.00
2022-12-01T02:11:05.208Z,6.30
2022-12-01T02:16:27.352Z,7.68
2022-12-01T02:22:01.784Z,8.43
2022-12-01T02:27:22.198Z,8.32
2022-12-01T02:32:47.635Z,8.40
2022-12-01T02:38:06.994Z,9.55
2022-12-01T02:43:44.028Z,7.22
2022-12-01T02:48:50.690Z,7.63
2022-12-01T02:53:55.287Z,7.65
2022-12-01T02:58:57.783Z,9.23
2022-12-01T03:09:20.839Z,8.48
2022-12-01T03:14:47.896Z,7.63
2022-12-01T03:20:08.995Z,12.45
2022-12-01T03:25:14.166Z,10.35
2022-12-01T03:30:17.537Z,12.30
2022-12-01T03:35:54.625Z,12.13
2022-12-01T03:41:02.399Z,12.38
2022-12-01T03:46:10.972Z,13.63
2022-12-01T03:51:20.084Z,12.77
2022-12-01T03:56:26.903Z,12.60
2022-12-01T04:01:34.128Z,12.48
2022-12-01T04:06:36.957Z,11.13
2022-12-01T04:11:58.067Z,12.10
2022-12-01T04:17:00.511Z,9.27
2022-12-01T04:22:03.913Z,5.07
2022-12-01T04:27:06.499Z,6.20
2022-12-01T04:32:09.143Z,7.55
2022-12-01T04:37:12.459Z,9.20
2022-12-01T04:42:14.945Z,9.18
2022-12-01T04:47:17.467Z,7.90
2022-12-01T04:52:19.911Z,6.72
2022-12-01T04:57:22.441Z,8.45
2022-12-01T05:02:25.069Z,7.35
2022-12-01T05:07:27.612Z,8.35
2022-12-01T05:12:30.219Z,7.43
2022-12-01T05:17:36.735Z,5.13
2022-12-01T05:23:04.236Z,6.10
2022-12-01T05:28:02.056Z,6.22
2022-12-01T05:38:08.277Z,7.97
2022-12-01T05:43:10.901Z,6.30
2022-12-01T05:48:13.405Z,6.68
2022-12-01T05:53:16.269Z,7.13
2022-12-01T05:58:18.796Z,8.10
2022-12-01T06:03:21.382Z,8.45
2022-12-01T06:08:23.957Z,9.35
2022-12-01T06:13:26.528Z,7.90
2022-12-01T06:18:32.168Z,6.95
2022-12-01T06:23:34.957Z,7.63
2022-12-01T06:28:37.427Z,9.02
2022-12-01T06:33:39.932Z,8.85
2022-12-01T06:38:42.519Z,7.60
2022-12-01T06:43:45.025Z,7.80
2022-12-01T06:48:50.781Z,7.60
2022-12-01T06:53:59.731Z,6.90
2022-12-01T06:59:04.808Z,8.32
2022-12-01T07:04:07.682Z,8.10
2022-12-01T07:09:10.384Z,8.90
2022-12-01T07:14:33.109Z,7.25
2022-12-01T07:19:36.359Z,6.18
2022-12-01T07:24:38.886Z,8.25
2022-12-01T07:29:41.522Z,6.43
2022-12-01T07:34:43.987Z,7.78
2022-12-01T07:39:46.742Z,6.88
2022-12-01T07:44:49.451Z,7.50
2022-12-01T07:49:52.055Z,7.82
2022-12-01T07:55:11.875Z,8.32
2022-12-01T08:00:15.406Z,7.20
2022-12-01T08:05:17.981Z,7.95
2022-12-01T08:10:20.558Z,5.53
2022-12-01T08:15:23.171Z,8.15
2022-12-01T08:20:25.876Z,7.13
2022-12-01T08:25:31.297Z,7.22
2022-12-01T08:30:33.780Z,8.02
2022-12-01T08:35:37.464Z,7.53
2022-12-01T08:41:02.792Z,6.63
2022-12-01T08:46:07.028Z,5.35
2022-12-01T08:51:15.795Z,5.85
2022-12-01T08:56:39.269Z,3.72
2022-12-01T09:01:53.821Z,6.30
2022-12-01T09:06:57.507Z,5.57
2022-12-01T09:11:59.996Z,5.50
2022-12-01T09:17:02.486Z,5.18
2022-12-01T09:22:04.983Z,5.32
2022-12-01T09:27:07.484Z,6.57
2022-12-01T09:32:10.018Z,5.82
2022-12-01T09:37:12.627Z,5.68
2022-12-01T09:42:18.916Z,6.13
2022-12-01T09:47:24.241Z,4.60
2022-12-01T09:52:29.549Z,5.63
2022-12-01T09:57:35.624Z,5.22
2022-12-01T10:03:03.582Z,5.93
2022-12-01T10:08:12.494Z,5.10
2022-12-01T10:13:21.291Z,5.85
2022-12-01T10:18:53.105Z,5.80
2022-12-01T10:24:23.369Z,5.70
2022-12-01T10:30:08.608Z,5.07
2022-12-01T10:35:19.218Z,4.45
2022-12-01T10:40:21.874Z,4.75
2022-12-01T10:45:27.745Z,4.53
2022-12-01T10:50:30.692Z,4.55
2022-12-01T10:55:40.884Z,2.42
2022-12-01T11:01:00.265Z,4.60
2022-12-01T11:06:07.128Z,3.92
2022-12-01T11:11:29.416Z,3.53
2022-12-01T11:16:42.764Z,3.65
2022-12-01T11:21:53.977Z,4.07
2022-12-01T11:27:16.436Z,3.67
2022-12-01T11:32:25.638Z,3.55
2022-12-01T11:38:13.205Z,4.13
2022-12-01T11:43:25.793Z,3.13
2022-12-01T11:48:31.399Z,4.32
2022-12-01T11:53:40.392Z,2.50
2022-12-01T11:58:44.554Z,2.55
2022-12-01T12:04:23.518Z,3.70
2022-12-01T12:09:29.283Z,3.22
2022-12-01T12:14:57.947Z,2.90
2022-12-01T12:20:08.195Z,3.38
2022-12-01T12:25:48.666Z,3.45
2022-12-01T12:31:28.715Z,2.63
2022-12-01T12:37:08.582Z,2.08
2022-12-01T12:42:56.555Z,2.70
2022-12-01T12:48:29.083Z,2.40
2022-12-01T12:53:43.905Z,2.20
2022-12-01T12:59:03.477Z,1.95
2022-12-01T13:04:14.189Z,3.63
2022-12-01T13:09:28.148Z,2.63
2022-12-01T13:14:39.065Z,3.78
2022-12-01T13:19:50.478Z,3.20
2022-12-01T13:24:53.102Z,2.20
2022-12-01T13:29:56.893Z,2.65
2022-12-01T13:35:00.998Z,2.83
2022-12-01T13:40:23.084Z,3.53
2022-12-01T13:45:26.021Z,4.13
2022-12-01T13:50:44.099Z,5.15
2022-12-01T13:56:03.390Z,4.20
2022-12-01T14:01:21.707Z,4.38
2022-12-01T14:06:28.842Z,4.95
2022-12-01T14:11:34.497Z,5.65
2022-12-01T14:17:02.795Z,5.60
2022-12-01T14:22:26.711Z,5.07
2022-12-01T14:27:39.028Z,6.10
2022-12-01T14:32:41.589Z,6.40
2022-12-01T14:37:47.832Z,6.95
2022-12-01T14:43:12.541Z,5.60
2022-12-01T14:48:21.871Z,6.50
2022-12-01T14:53:36.590Z,6.50
2022-12-01T14:58:39.241Z,6.88
2022-12-01T15:03:54.067Z,6.07
2022-12-01T15:09:33.363Z,7.30
2022-12-01T15:14:48.688Z,7.47
2022-12-01T15:19:51.722Z,6.43
2022-12-01T15:25:13.979Z,7.18
2022-12-01T15:30:19.112Z,6.80
2022-12-01T15:35:23.503Z,6.50
2022-12-01T15:46:02.194Z,6.32
2022-12-01T15:51:16.568Z,6.68
2022-12-01T15:56:26.992Z,8.75
2022-12-01T16:01:31.971Z,8.70
2022-12-01T16:06:38.458Z,6.90
2022-12-01T16:11:41.036Z,6.53
2022-12-01T16:16:51.654Z,8.52
2022-12-01T16:22:05.449Z,7.47
2022-12-01T16:27:16.936Z,7.00
2022-12-01T16:32:25.192Z,7.43
2022-12-01T16:37:27.932Z,6.80
2022-12-01T16:42:30.403Z,7.22
2022-12-01T16:47:33.026Z,8.20
2022-12-01T16:52:44.037Z,10.00
2022-12-01T16:57:47.578Z,8.60
2022-12-01T17:02:50.335Z,9.13
2022-12-01T17:07:54.159Z,7.97
2022-12-01T17:12:57.355Z,6.05
2022-12-01T17:17:59.813Z,6.97
2022-12-01T17:23:02.408Z,7.57
2022-12-01T17:28:04.905Z,8.43
2022-12-01T17:33:07.376Z,7.68
2022-12-01T17:38:12.815Z,7.22
2022-12-01T17:43:15.516Z,7.57
2022-12-01T17:48:18.040Z,9.15
2022-12-01T17:53:20.705Z,9.82
2022-12-01T17:58:23.312Z,7.85
2022-12-01T18:03:25.849Z,7.13
2022-12-01T18:08:30.226Z,3.72
2022-12-01T18:13:35.296Z,8.25
2022-12-01T18:18:38.800Z,7.35
2022-12-01T18:23:41.275Z,5.85
2022-12-01T18:28:44.471Z,7.55
2022-12-01T18:33:46.931Z,6.63
2022-12-01T18:38:50.646Z,7.30
2022-12-01T18:43:53.099Z,4.32
2022-12-01T18:49:07.077Z,6.72
2022-12-01T18:54:12.873Z,5.50
2022-12-01T18:59:17.543Z,6.63
2022-12-01T19:04:20.473Z,7.07
2022-12-01T19:09:23.267Z,6.13
2022-12-01T19:14:30.538Z,5.82
2022-12-01T19:19:37.335Z,7.18
2022-12-01T19:24:40.461Z,6.05
2022-12-01T19:29:43.078Z,6.63
2022-12-01T19:34:45.847Z,5.85
2022-12-01T19:39:48.324Z,6.20
2022-12-01T19:44:51.018Z,6.25
2022-12-01T19:49:53.625Z,6.22
2022-12-01T19:54:56.317Z,6.07
2022-12-01T19:59:58.914Z,5.43
2022-12-01T20:05:01.584Z,5.57
2022-12-01T20:10:06.643Z,5.45
2022-12-01T20:15:09.707Z,6.00
2022-12-01T20:20:13.012Z,7.18
2022-12-01T20:25:15.529Z,6.47
2022-12-01T20:30:18.087Z,5.80
2022-12-01T20:35:20.639Z,4.95
2022-12-01T20:40:23.306Z,5.03
2022-12-01T20:45:28.622Z,4.47
2022-12-01T20:50:31.121Z,5.53
2022-12-01T20:55:36.573Z,4.35
2022-12-01T21:00:44.576Z,4.75
2022-12-01T21:05:47.102Z,4.47
2022-12-01T21:10:49.565Z,4.95
2022-12-01T21:16:01.813Z,5.40
2022-12-01T21:21:22.804Z,3.10
2022-12-01T21:26:26.259Z,4.32
2022-12-01T21:31:29.386Z,4.53
2022-12-01T21:36:31.888Z,5.20
2022-12-01T21:41:34.563Z,4.97
2022-12-01T21:46:40.023Z,4.35
2022-12-01T21:51:42.619Z,5.13
2022-12-01T21:56:45.687Z,5.28
2022-12-01T22:01:53.933Z,5.22
2022-12-01T22:06:57.803Z,5.03
2022-12-01T22:12:24.816Z,4.70
2022-12-01T22:17:28.361Z,4.63
2022-12-01T22:22:33.046Z,5.32
2022-12-01T22:27:39.661Z,4.13
2022-12-01T22:32:57.597Z,3.25
2022-12-01T22:38:09.033Z,4.32
2022-12-01T22:43:17.556Z,4.15
2022-12-01T22:48:22.971Z,4.20
2022-12-01T22:53:31.449Z,3.95
2022-12-01T22:58:41.229Z,4.35
2022-12-01T23:03:43.684Z,4.05
2022-12-01T23:08:46.688Z,4.45
2022-12-01T23:13:49.182Z,3.58
2022-12-01T23:18:51.583Z,5.68
2022-12-01T23:23:54.118Z,5.97
2022-12-01T23:28:58.847Z,5.13
2022-12-01T23:34:01.570Z,4.90
2022-12-01T23:39:11.826Z,5.57
2022-12-01T23:44:41.207Z,5.15
2022-12-01T23:49:45.043Z,5.00
2022-12-01T23:54:48.719Z,5.63
